Close Search

Base
°C
Summit
°C

WEATHER AT A GLANCE

Image Slideshow

RMR Village

Revelstoke Mountain Resort -  RMR Village Webcam

Top of The Stoke

Revelstoke Mountain Resort -  Top of The Stoke Webcam

Top of Stellar

Revelstoke Mountain Resort -  Top of Stellar Webcam

Mackenzie Outpost

Revelstoke Mountain Resort -  Mackenzie Outpost Webcam

Ripper

Revelstoke Mountain Resort -  Ripper Webcam
Base
°C
Summit
°C
Wind (Summit)
km/h

Today's Forecast

Subpeak Weather

Time Avg. Air Temp Dew Point Avg. Rel Humidity Avg. 2 Min Wind Speed Max Gust Velocity MGV Time MGV Direction Avg. Spot Wind Velocity
2026-05-04 17:25:006° C-3° C50%6 km/h9 km/h17:25:00NW5 km/h
16:25:007° C-3° C51%9 km/h19 km/h16:25:00NE5 km/h
15:25:006° C-3° C53%4 km/h14 km/h15:21:00NE6 km/h
14:25:006° C-4° C52%10 km/h14 km/h14:25:00NE7 km/h
13:25:006° C-3° C54%1 km/h15 km/h13:22:00SE4 km/h
12:25:006° C-3° C55%1 km/h7 km/h12:23:00N1 km/h
11:25:004° C-3° C59%8 km/h21 km/h11:21:00N11 km/h
10:25:003° C-3° C63%30 km/h36 km/h10:22:00NE30 km/h
09:25:003° C-3° C62%32 km/h41 km/h09:22:00NE34 km/h
08:25:003° C-3° C61%34 km/h38 km/h08:21:00NE30 km/h
07:25:003° C-4° C62%32 km/h39 km/h07:22:00NE29 km/h
06:25:003° C-3° C61%24 km/h26 km/h06:25:00NE23 km/h
05:25:003° C-4° C59%25 km/h30 km/h05:23:00NE25 km/h
04:25:004° C-4° C53%20 km/h24 km/h04:21:00NE21 km/h
03:25:003° C-4° C58%5 km/h21 km/h03:21:00SW5 km/h
02:25:004° C-4° C57%6 km/h13 km/h02:24:00N5 km/h
01:25:004° C-4° C55%7 km/h19 km/h01:24:00SW9 km/h
00:25:005° C-4° C52%6 km/h18 km/h00:22:00N8 km/h
23:25:005° C-4° C52%4 km/h16 km/h23:23:00SE4 km/h
22:25:006° C-3° C54%6 km/h24 km/h22:21:00N7 km/h
21:25:006° C-2° C53%5 km/h14 km/h21:23:00NE7 km/h
20:25:007° C-3° C49%20 km/h24 km/h20:22:00NW19 km/h
19:25:007° C-3° C50%6 km/h13 km/h19:21:00NW7 km/h
18:25:007° C-3° C50%5 km/h15 km/h18:23:00NW6 km/h

Time Avg. Air Temp Dew Point Avg. Rel Humidity Avg. 2 Min Wind Speed Max Gust Velocity MGV Time MGV Direction Avg. Spot Wind Velocity
2026-05-04 17:25:006° C-3° C50%6 km/h9 km/h17:25:00NW5 km/h
17:20:007° C-3° C50%2 km/h7 km/h17:17:00N2 km/h
17:15:006° C-3° C52%6 km/h9 km/h17:15:00W5 km/h
17:10:006° C-3° C52%3 km/h10 km/h17:06:00W4 km/h
17:05:006° C-4° C51%9 km/h17 km/h17:04:00NE9 km/h
17:00:006° C-3° C51%5 km/h11 km/h17:00:00W4 km/h
16:55:007° C-3° C50%3 km/h12 km/h16:53:00W2 km/h
16:50:007° C-3° C50%3 km/h5 km/h16:47:00W2 km/h
16:45:006° C-3° C54%2 km/h11 km/h16:41:00W3 km/h
16:40:006° C-3° C53%14 km/h20 km/h16:40:00NE15 km/h
16:35:006° C-3° C53%4 km/h7 km/h16:34:00W2 km/h
16:30:006° C-3° C53%4 km/h15 km/h16:26:00W5 km/h
16:25:007° C-3° C51%9 km/h19 km/h16:25:00NE5 km/h

We value your privacy
We use cookies to enhance your browsing experience, serve personalized ads or content, and analyze our traffic. By clicking "Allow Cookies", you consent to our use of cookies. For additional details view our Privacy Policy.
Cookie preferences

You can control how your data is used on our website. Learn more below about the cookies we use by reviewing our Privacy Policy.

Your cookie preferences have been saved.